Time;durP1;ratioP1;P1;durP2;ratioP2;P2;SDS_P1;SDS_P2;PMS_P1;PMS_P2;Temp;Humidity;BMP_temperature;BMP_pressure;BME280_temperature;BME280_humidity;BME280_pressure;Samples;Min_cycle;Max_cycle;Signal;HPM_P1;HPM_P2
2023/03/27 00:01:35;;;;;;;2.43;1.17;;;7.50;99.90;;;;;;10303092;28;20833;-64
2023/03/27 00:06:36;;;;;;;4.27;1.40;;;7.50;99.90;;;;;;10306281;28;20221;-65
2023/03/27 00:11:37;;;;;;;4.13;1.63;;;7.50;99.90;;;;;;10305414;28;20797;-65
2023/03/27 00:16:37;;;;;;;3.03;1.47;;;7.50;99.90;;;;;;10314403;28;20699;-64
2023/03/27 00:21:39;;;;;;;5.57;1.40;;;7.40;99.90;;;;;;10314135;28;20227;-65
2023/03/27 00:26:41;;;;;;;4.00;1.80;;;7.40;99.90;;;;;;10309859;28;20768;-65
2023/03/27 00:31:42;;;;;;;6.27;2.37;;;7.40;99.90;;;;;;10330332;28;20227;-71
2023/03/27 00:36:47;;;;;;;9.07;2.30;;;7.10;99.90;;;;;;10324969;28;20213;-69
2023/03/27 00:41:47;;;;;;;6.53;2.80;;;6.90;99.90;;;;;;10314860;28;20223;-69
2023/03/27 00:46:55;;;;;;;8.70;2.70;;;6.80;99.90;;;;;;10314720;28;20739;-68
2023/03/27 00:51:57;;;;;;;7.83;2.33;;;6.70;99.90;;;;;;10316781;28;20226;-67
2023/03/27 00:57:04;;;;;;;6.03;2.20;;;6.80;99.90;;;;;;10316700;28;20214;-68
2023/03/27 01:02:06;;;;;;;8.53;2.67;;;6.90;99.90;;;;;;10324701;28;20656;-69
2023/03/27 01:07:09;;;;;;;7.10;2.63;;;6.90;99.90;;;;;;10320316;28;20271;-68
2023/03/27 01:12:16;;;;;;;10.73;2.50;;;6.90;99.90;;;;;;10323532;28;20230;-67
2023/03/27 01:17:58;;;;;;;12.97;3.07;;;6.80;99.90;;;;;;10315022;28;20222;-68
2023/03/27 01:23:17;;;;;;;9.70;2.93;;;6.80;99.90;;;;;;10302066;28;20226;-67
2023/03/27 01:28:44;;;;;;;11.73;2.93;;;6.70;99.90;;;;;;10316235;28;20685;-67
2023/03/27 01:34:00;;;;;;;10.57;2.80;;;6.70;99.90;;;;;;10319657;28;20273;-66
2023/03/27 01:39:26;;;;;;;9.80;2.33;;;6.60;99.90;;;;;;10322078;28;20221;-68
2023/03/27 01:44:57;;;;;;;8.93;2.00;;;6.50;99.90;;;;;;10309804;28;20292;-67
2023/03/27 01:50:18;;;;;;;11.57;2.10;;;6.30;99.90;;;;;;10304067;28;20874;-69
2023/03/27 01:55:24;;;;;;;10.07;2.37;;;6.10;99.90;;;;;;10308452;28;20229;-68
2023/03/27 02:00:26;;;;;;;8.47;2.00;;;5.90;99.90;;;;;;10311629;28;20240;-68
2023/03/27 02:05:59;;;;;;;10.37;2.27;;;5.70;99.90;;;;;;10309187;28;20235;-66
2023/03/27 02:10:59;;;;;;;9.33;2.03;;;5.50;99.90;;;;;;10298661;28;20227;-71
2023/03/27 02:16:01;;;;;;;6.07;1.80;;;5.30;99.90;;;;;;10313263;28;20222;-68
2023/03/27 02:21:02;;;;;;;5.63;1.70;;;5.10;99.90;;;;;;10320916;28;20226;-69
2023/03/27 02:26:03;;;;;;;5.70;1.80;;;5.00;99.90;;;;;;10313339;28;20221;-70
2023/03/27 02:31:16;;;;;;;7.33;2.03;;;4.90;99.90;;;;;;10305696;28;20225;-70
2023/03/27 02:36:44;;;;;;;10.50;2.00;;;4.80;99.90;;;;;;10306368;28;20312;-70
2023/03/27 02:42:06;;;;;;;6.93;1.57;;;4.70;99.90;;;;;;10304959;28;20232;-67
2023/03/27 02:47:35;;;;;;;8.47;2.00;;;4.60;99.90;;;;;;10324401;28;20225;-68
2023/03/27 02:52:45;;;;;;;7.77;2.00;;;4.50;99.90;;;;;;10308292;28;20230;-69
2023/03/27 02:57:51;;;;;;;11.07;1.90;;;4.40;99.90;;;;;;10320089;28;20214;-67
2023/03/27 03:03:04;;;;;;;8.80;2.30;;;4.30;99.90;;;;;;10310836;28;20339;-69
2023/03/27 03:08:08;;;;;;;10.03;2.13;;;4.20;99.90;;;;;;10303696;28;20281;-69
2023/03/27 03:13:09;;;;;;;8.27;2.20;;;4.10;99.90;;;;;;10314912;28;20831;-69
2023/03/27 03:18:16;;;;;;;10.20;1.70;;;4.10;99.90;;;;;;10304472;28;20279;-69
2023/03/27 03:23:16;;;;;;;9.27;2.33;;;4.00;99.90;;;;;;10316746;28;20276;-68
2023/03/27 03:28:18;;;;;;;11.00;1.97;;;4.00;99.90;;;;;;10304630;28;20568;-68
2023/03/27 03:33:19;;;;;;;11.23;1.97;;;3.90;99.90;;;;;;10309828;28;20213;-67
2023/03/27 03:38:23;;;;;;;7.50;2.13;;;3.90;99.90;;;;;;10310582;28;20218;-69
2023/03/27 03:43:27;;;;;;;11.37;2.10;;;3.90;99.90;;;;;;10307990;28;20236;-69
2023/03/27 03:48:27;;;;;;;6.40;2.20;;;3.90;99.90;;;;;;10311470;28;20221;-71
2023/03/27 03:53:28;;;;;;;5.33;1.40;;;3.80;99.90;;;;;;10327016;28;20218;-72
2023/03/27 03:58:28;;;;;;;10.77;1.97;;;3.80;99.90;;;;;;10325449;28;20263;-71
2023/03/27 04:03:31;;;;;;;6.63;1.67;;;3.70;99.90;;;;;;10323344;28;20312;-72
2023/03/27 04:08:32;;;;;;;6.17;1.73;;;3.70;99.90;;;;;;10327665;28;20222;-72
2023/03/27 04:13:32;;;;;;;7.80;1.60;;;3.60;99.90;;;;;;10323138;28;20294;-72
2023/03/27 04:18:33;;;;;;;5.97;1.83;;;3.60;99.90;;;;;;10326611;28;20225;-72
2023/03/27 04:23:34;;;;;;;7.07;1.93;;;3.50;99.90;;;;;;10318737;28;21015;-72
2023/03/27 04:28:36;;;;;;;9.77;1.73;;;3.50;99.90;;;;;;10318926;28;20223;-74
2023/03/27 04:33:38;;;;;;;9.67;2.00;;;3.40;99.90;;;;;;10318563;28;20220;-69
2023/03/27 04:38:39;;;;;;;8.13;2.03;;;3.40;99.90;;;;;;10317315;28;20824;-69
2023/03/27 04:43:40;;;;;;;7.20;2.00;;;3.40;99.90;;;;;;10325249;28;20585;-70
2023/03/27 04:48:41;;;;;;;7.17;1.80;;;3.30;99.90;;;;;;10335836;28;20225;-70
2023/03/27 04:53:42;;;;;;;10.17;2.10;;;3.20;99.90;;;;;;10317089;28;20233;-70
2023/03/27 04:58:45;;;;;;;7.90;1.83;;;3.20;99.90;;;;;;10316866;28;20222;-71
2023/03/27 05:03:47;;;;;;;6.67;1.90;;;3.20;99.90;;;;;;10314354;28;20225;-74
2023/03/27 05:08:49;;;;;;;5.30;1.70;;;3.20;99.90;;;;;;10322141;28;20222;-75
2023/03/27 05:13:49;;;;;;;5.87;1.93;;;3.10;99.90;;;;;;10319637;28;20316;-75
2023/03/27 05:18:50;;;;;;;9.70;1.97;;;3.00;99.90;;;;;;10304932;28;20597;-74
2023/03/27 05:23:51;;;;;;;11.60;1.90;;;3.00;99.90;;;;;;10308445;28;20225;-75
2023/03/27 05:28:54;;;;;;;8.73;2.40;;;3.10;99.90;;;;;;10322412;28;20221;-75
2023/03/27 05:33:55;;;;;;;5.60;1.63;;;3.10;99.90;;;;;;10330394;28;20228;-75
2023/03/27 05:38:56;;;;;;;9.20;2.03;;;3.20;99.90;;;;;;10330364;28;20233;-75
2023/03/27 05:43:57;;;;;;;9.53;1.93;;;3.30;99.90;;;;;;10328594;28;20206;-76
2023/03/27 05:49:01;;;;;;;10.77;2.03;;;3.30;99.90;;;;;;10328229;28;20220;-76
2023/03/27 05:54:01;;;;;;;6.83;2.00;;;3.50;99.90;;;;;;10329677;28;20608;-74
2023/03/27 05:59:02;;;;;;;5.00;1.40;;;3.70;99.90;;;;;;10330323;28;20217;-76
2023/03/27 06:04:03;;;;;;;7.07;1.60;;;4.00;99.90;;;;;;10327278;28;20222;-76
2023/03/27 06:09:04;;;;;;;10.70;2.10;;;4.30;99.90;;;;;;10328461;28;20257;-73
2023/03/27 06:14:05;;;;;;;6.80;1.93;;;4.40;99.90;;;;;;10331951;28;20280;-77
2023/03/27 06:19:06;;;;;;;3.30;1.80;;;4.40;99.90;;;;;;10323155;28;20668;-74
2023/03/27 06:24:06;;;;;;;11.83;1.90;;;4.50;99.90;;;;;;10311238;28;20212;-74
2023/03/27 06:29:07;;;;;;;7.33;1.80;;;4.70;99.90;;;;;;10325681;28;20890;-74
2023/03/27 06:34:09;;;;;;;9.77;2.10;;;5.00;99.90;;;;;;10327116;28;20267;-74
2023/03/27 06:39:10;;;;;;;4.53;1.67;;;5.20;99.90;;;;;;10329075;28;20565;-76
2023/03/27 06:44:11;;;;;;;6.87;1.53;;;5.30;99.90;;;;;;10306751;28;20255;-75
2023/03/27 06:49:12;;;;;;;8.50;1.93;;;5.50;99.90;;;;;;10318721;28;20253;-75
2023/03/27 06:54:13;;;;;;;6.70;1.80;;;5.60;99.90;;;;;;10317069;28;20694;-75
2023/03/27 06:59:13;;;;;;;6.87;1.70;;;5.70;99.90;;;;;;10317423;28;20218;-75
2023/03/27 07:04:15;;;;;;;7.33;1.97;;;6.10;99.90;;;;;;10322749;28;20591;-74
2023/03/27 07:09:16;;;;;;;9.67;2.07;;;6.10;99.90;;;;;;10330393;28;20320;-75
2023/03/27 07:14:16;;;;;;;6.30;1.63;;;6.30;99.90;;;;;;10327133;28;20241;-74
2023/03/27 07:19:17;;;;;;;9.10;1.63;;;7.10;99.90;;;;;;10327116;28;20209;-75
2023/03/27 07:24:18;;;;;;;8.07;2.30;;;8.10;99.90;;;;;;10326220;28;20317;-76
2023/03/27 07:29:19;;;;;;;9.60;1.97;;;7.70;99.90;;;;;;10326786;28;20816;-75
2023/03/27 07:34:19;;;;;;;10.10;2.30;;;7.20;99.90;;;;;;10325763;28;20210;-74
2023/03/27 07:39:20;;;;;;;6.80;2.10;;;7.30;99.90;;;;;;10324938;28;20225;-75
2023/03/27 07:44:21;;;;;;;13.57;2.03;;;7.40;99.90;;;;;;10325070;28;20206;-74
2023/03/27 07:49:21;;;;;;;9.90;2.23;;;7.50;99.90;;;;;;10326428;28;20264;-75
2023/03/27 07:54:23;;;;;;;6.30;1.97;;;8.20;99.90;;;;;;10326926;28;20227;-76
2023/03/27 07:59:24;;;;;;;7.97;2.10;;;11.70;99.90;;;;;;10325390;28;20284;-76
2023/03/27 08:04:24;;;;;;;5.20;1.90;;;16.40;93.00;;;;;;10329179;28;20293;-77
2023/03/27 08:09:25;;;;;;;8.03;2.03;;;19.70;59.50;;;;;;10326139;28;20700;-77
2023/03/27 08:14:26;;;;;;;10.67;2.40;;;21.10;49.90;;;;;;10324767;28;20313;-77
2023/03/27 08:19:27;;;;;;;7.00;2.37;;;21.80;44.90;;;;;;10324426;28;20428;-77
2023/03/27 08:24:27;;;;;;;7.17;2.17;;;22.80;41.20;;;;;;10321684;28;20219;-78
2023/03/27 08:29:28;;;;;;;9.13;2.23;;;23.50;39.90;;;;;;10326719;28;20218;-77
2023/03/27 08:34:30;;;;;;;12.40;2.23;;;24.80;38.20;;;;;;10322885;28;20221;-75
2023/03/27 08:39:30;;;;;;;8.67;2.37;;;25.40;36.50;;;;;;10316061;28;20222;-75
2023/03/27 08:44:33;;;;;;;6.50;2.20;;;23.30;37.30;;;;;;10322739;28;20216;-75
2023/03/27 08:49:38;;;;;;;8.23;2.30;;;20.80;41.90;;;;;;10313431;28;20222;-75
2023/03/27 08:54:40;;;;;;;5.03;1.67;;;20.30;42.90;;;;;;10313032;28;20234;-74
2023/03/27 08:59:41;;;;;;;7.80;1.90;;;19.00;42.20;;;;;;10323666;28;20249;-75
2023/03/27 09:05:04;;;;;;;6.40;1.90;;;17.10;48.40;;;;;;10318228;28;20252;-74
2023/03/27 09:10:23;;;;;;;12.37;2.13;;;15.50;50.00;;;;;;10309426;28;20236;-75
2023/03/27 09:15:32;;;;;;;5.53;1.20;;;13.50;54.50;;;;;;10314013;28;20212;-74
2023/03/27 09:20:39;;;;;;;8.20;1.70;;;11.90;57.90;;;;;;10319181;28;20698;-75
2023/03/27 09:25:45;;;;;;;8.37;1.87;;;11.30;60.30;;;;;;10312157;28;20218;-74
2023/03/27 09:30:47;;;;;;;5.63;1.73;;;11.20;61.20;;;;;;10329519;28;20233;-75
2023/03/27 09:35:48;;;;;;;4.87;1.20;;;11.40;62.20;;;;;;10314325;28;20229;-75
2023/03/27 09:40:52;;;;;;;5.07;1.17;;;11.80;63.10;;;;;;10322294;28;20218;-75
2023/03/27 09:45:54;;;;;;;9.37;1.70;;;16.00;55.30;;;;;;10305781;28;20307;-76
2023/03/27 09:50:55;;;;;;;6.23;1.47;;;18.10;47.00;;;;;;10307400;28;20232;-76
2023/03/27 09:56:05;;;;;;;7.70;1.80;;;16.90;48.00;;;;;;10320330;28;20274;-76
2023/03/27 10:01:19;;;;;;;4.80;1.10;;;16.20;50.10;;;;;;10328222;28;20241;-75
2023/03/27 10:06:43;;;;;;;3.37;1.20;;;19.00;45.40;;;;;;10305935;28;20225;-75
2023/03/27 10:11:44;;;;;;;3.17;1.20;;;22.50;38.10;;;;;;10306692;28;20219;-75
2023/03/27 10:16:46;;;;;;;4.33;1.63;;;22.50;37.70;;;;;;10306417;28;20736;-77
2023/03/27 10:21:47;;;;;;;4.90;1.43;;;21.90;38.70;;;;;;10325020;28;20840;-76
2023/03/27 10:26:51;;;;;;;9.73;1.77;;;19.50;41.40;;;;;;10317628;28;20235;-77
2023/03/27 10:31:56;;;;;;;6.87;1.90;;;17.10;45.80;;;;;;10312576;28;20643;-77
2023/03/27 10:37:00;;;;;;;4.10;1.50;;;15.10;50.90;;;;;;10309525;28;20225;-77
2023/03/27 10:42:06;;;;;;;3.70;1.13;;;14.40;58.10;;;;;;10304109;28;20589;-76
2023/03/27 10:47:30;;;;;;;5.07;1.10;;;15.00;57.00;;;;;;10308556;28;20230;-76
2023/03/27 10:52:51;;;;;;;2.77;1.20;;;16.80;55.40;;;;;;10310561;28;20227;-75
2023/03/27 10:57:56;;;;;;;1.80;0.90;;;21.00;47.80;;;;;;10321381;28;20263;-78
2023/03/27 11:03:03;;;;;;;1.73;0.70;;;21.20;45.20;;;;;;10304458;28;20253;-75
2023/03/27 11:08:14;;;;;;;1.63;0.70;;;19.90;47.90;;;;;;10323037;28;20221;-76
2023/03/27 11:13:34;;;;;;;1.43;0.60;;;17.70;51.50;;;;;;10303793;28;20232;-78
2023/03/27 11:18:45;;;;;;;1.70;0.63;;;16.50;54.90;;;;;;10304163;28;20303;-77
2023/03/27 11:23:50;;;;;;;4.83;1.10;;;20.50;48.30;;;;;;10318481;28;20293;-78
2023/03/27 11:29:08;;;;;;;1.83;0.97;;;20.60;45.30;;;;;;10317906;28;20888;-79
2023/03/27 11:34:28;;;;;;;3.03;1.03;;;17.00;53.70;;;;;;10308421;28;20575;-78
2023/03/27 11:39:37;;;;;;;4.10;1.13;;;14.50;61.50;;;;;;10310375;28;20231;-76
2023/03/27 11:44:38;;;;;;;3.03;1.00;;;13.20;63.40;;;;;;10305659;28;20218;-76
2023/03/27 11:50:04;;;;;;;3.37;1.23;;;12.60;67.70;;;;;;10312490;28;20241;-76
2023/03/27 11:55:15;;;;;;;2.83;0.90;;;12.40;65.20;;;;;;10316484;28;20725;-76
2023/03/27 12:00:24;;;;;;;2.57;1.20;;;12.40;66.30;;;;;;10317082;28;20583;-76
2023/03/27 12:05:52;;;;;;;2.40;1.03;;;12.60;64.00;;;;;;10300548;28;20226;-76
2023/03/27 12:10:55;;;;;;;3.77;0.70;;;13.00;61.60;;;;;;10308716;28;20233;-75
2023/03/27 12:16:23;;;;;;;4.83;1.10;;;12.40;60.90;;;;;;10316262;28;20225;-73
2023/03/27 12:21:45;;;;;;;3.10;1.00;;;11.80;66.10;;;;;;10310559;28;20257;-75
2023/03/27 12:27:13;;;;;;;3.43;1.17;;;11.90;67.40;;;;;;10310905;28;20229;-76
2023/03/27 12:32:32;;;;;;;4.37;1.60;;;12.00;64.10;;;;;;10309748;28;20306;-76
2023/03/27 12:37:58;;;;;;;3.10;1.30;;;11.80;62.50;;;;;;10312917;28;20292;-77
2023/03/27 12:43:07;;;;;;;3.50;1.20;;;11.70;61.00;;;;;;10312273;28;20225;-75
2023/03/27 12:48:08;;;;;;;5.40;1.40;;;11.50;62.60;;;;;;10308285;28;20757;-76
2023/03/27 12:53:42;;;;;;;2.37;1.13;;;11.60;63.90;;;;;;10315269;28;20223;-75
2023/03/27 12:58:51;;;;;;;2.37;0.90;;;12.00;64.70;;;;;;10319682;28;20225;-76
2023/03/27 13:04:25;;;;;;;10.97;2.10;;;12.20;62.60;;;;;;10315715;28;20235;-76
2023/03/27 13:09:47;;;;;;;3.77;1.50;;;11.60;71.10;;;;;;10318144;28;20913;-76
2023/03/27 13:15:12;;;;;;;2.90;0.97;;;11.10;73.90;;;;;;10321708;28;20221;-76
2023/03/27 13:20:48;;;;;;;2.23;0.83;;;10.60;78.60;;;;;;10315675;28;20358;-74
2023/03/27 13:26:02;;;;;;;2.30;0.97;;;10.50;78.60;;;;;;10310979;28;20229;-75
2023/03/27 13:31:10;;;;;;;1.90;0.87;;;10.90;77.80;;;;;;10320575;28;20622;-75
2023/03/27 13:36:13;;;;;;;3.57;0.80;;;11.30;72.60;;;;;;10306721;28;20306;-73
2023/03/27 13:41:42;;;;;;;1.07;0.53;;;11.30;69.70;;;;;;10320311;28;20230;-74
2023/03/27 13:46:55;;;;;;;1.97;0.83;;;11.00;66.10;;;;;;10309878;28;20717;-73
2023/03/27 13:52:31;;;;;;;3.40;1.30;;;10.80;66.80;;;;;;10306660;28;20459;-75
2023/03/27 13:57:57;;;;;;;3.03;0.73;;;10.80;69.50;;;;;;10308534;28;20237;-74
2023/03/27 14:03:09;;;;;;;3.10;0.90;;;10.80;70.20;;;;;;10320597;28;20275;-75
2023/03/27 14:08:19;;;;;;;4.40;0.80;;;10.60;72.20;;;;;;10318356;28;20218;-74
2023/03/27 14:13:38;;;;;;;3.40;1.13;;;10.60;71.70;;;;;;10311436;28;20232;-75
2023/03/27 14:18:47;;;;;;;2.03;0.77;;;10.60;73.00;;;;;;10309073;28;20236;-73
2023/03/27 14:23:54;;;;;;;4.07;1.30;;;10.60;70.90;;;;;;10310160;28;20430;-74
2023/03/27 14:29:00;;;;;;;2.00;1.00;;;10.60;71.10;;;;;;10310156;28;20217;-74
2023/03/27 14:34:10;;;;;;;3.13;1.00;;;10.90;68.70;;;;;;10314686;28;20325;-75
2023/03/27 14:39:20;;;;;;;3.43;1.27;;;11.00;67.30;;;;;;10301006;28;20714;-74
2023/03/27 14:44:23;;;;;;;3.60;0.93;;;10.50;73.50;;;;;;10301671;28;20225;-73
2023/03/27 14:49:30;;;;;;;3.67;0.83;;;10.20;76.10;;;;;;10316576;28;20277;-75
2023/03/27 14:54:31;;;;;;;1.83;1.10;;;9.90;79.00;;;;;;10321610;28;20264;-74
2023/03/27 14:59:41;;;;;;;2.70;0.80;;;9.10;88.50;;;;;;10311458;28;20233;-74
2023/03/27 15:04:42;;;;;;;2.87;1.03;;;8.70;91.10;;;;;;10311171;28;20236;-74
2023/03/27 15:09:44;;;;;;;2.33;1.00;;;9.40;91.30;;;;;;10307287;28;20601;-74
2023/03/27 15:14:45;;;;;;;1.53;1.07;;;10.00;90.60;;;;;;10318557;28;20791;-73
2023/03/27 15:19:54;;;;;;;1.60;0.87;;;10.10;87.80;;;;;;10309655;28;20225;-74
2023/03/27 15:25:01;;;;;;;1.73;1.17;;;9.80;87.30;;;;;;10305257;28;20470;-73
2023/03/27 15:30:33;;;;;;;1.77;0.90;;;9.40;88.50;;;;;;10304952;28;20265;-73
2023/03/27 15:35:46;;;;;;;3.53;1.43;;;9.20;89.30;;;;;;10303459;28;20854;-73
2023/03/27 15:41:06;;;;;;;2.97;1.13;;;9.30;88.50;;;;;;10303042;28;20257;-73
2023/03/27 15:46:18;;;;;;;2.43;1.00;;;9.30;87.90;;;;;;10308783;28;20625;-73
2023/03/27 15:51:19;;;;;;;2.40;1.30;;;9.20;86.50;;;;;;10303641;28;20226;-73
2023/03/27 15:56:24;;;;;;;3.97;1.30;;;9.00;88.50;;;;;;10308504;28;20233;-74
2023/03/27 16:01:28;;;;;;;3.07;1.40;;;8.80;90.00;;;;;;10296893;28;20262;-74
2023/03/27 16:06:41;;;;;;;1.53;1.00;;;8.70;90.30;;;;;;10320799;28;20228;-73
2023/03/27 16:11:44;;;;;;;3.67;1.00;;;8.50;90.90;;;;;;10322761;28;20295;-74
2023/03/27 16:16:45;;;;;;;1.37;0.80;;;8.30;90.60;;;;;;10305270;28;20234;-74
2023/03/27 16:21:55;;;;;;;1.47;0.87;;;8.20;89.20;;;;;;10314433;28;20240;-72
2023/03/27 16:26:56;;;;;;;1.67;0.73;;;8.20;88.20;;;;;;10303076;28;20238;-74
2023/03/27 16:31:59;;;;;;;2.23;0.73;;;8.00;86.30;;;;;;10315618;28;20924;-72
2023/03/27 16:37:00;;;;;;;1.43;0.60;;;7.90;84.60;;;;;;10302862;28;20394;-74
2023/03/27 16:42:01;;;;;;;1.43;0.60;;;7.80;85.60;;;;;;10308790;28;20590;-74
2023/03/27 16:47:05;;;;;;;2.10;1.30;;;7.80;85.70;;;;;;10309118;28;20277;-74
2023/03/27 16:52:06;;;;;;;2.03;0.83;;;7.80;85.50;;;;;;10319004;28;20612;-73
2023/03/27 16:57:07;;;;;;;1.30;0.77;;;7.80;85.50;;;;;;10315035;28;20225;-73
2023/03/27 17:02:10;;;;;;;1.43;0.80;;;7.70;85.30;;;;;;10324852;28;20233;-73
2023/03/27 17:07:10;;;;;;;2.87;0.73;;;7.70;86.80;;;;;;10323868;28;20248;-73
2023/03/27 17:12:11;;;;;;;1.50;0.73;;;7.60;87.20;;;;;;10322189;28;20708;-73
2023/03/27 17:17:12;;;;;;;1.43;0.70;;;7.60;87.40;;;;;;10315741;28;20227;-74
2023/03/27 17:22:12;;;;;;;3.27;0.80;;;7.50;88.50;;;;;;10315757;28;20583;-73
2023/03/27 17:27:13;;;;;;;3.67;1.00;;;7.60;90.50;;;;;;10319372;28;20245;-73
2023/03/27 17:32:14;;;;;;;2.87;1.13;;;7.40;96.50;;;;;;10308213;28;20219;-73
2023/03/27 17:37:15;;;;;;;1.17;0.77;;;7.30;99.90;;;;;;10314637;28;20273;-74
2023/03/27 17:42:16;;;;;;;4.40;1.37;;;7.20;99.90;;;;;;10307807;28;20234;-73
2023/03/27 17:47:17;;;;;;;1.77;1.10;;;6.90;99.90;;;;;;10321605;28;20218;-73
2023/03/27 17:52:18;;;;;;;2.43;1.27;;;6.60;99.90;;;;;;10307632;28;20229;-72
2023/03/27 17:57:19;;;;;;;2.23;0.97;;;6.30;99.90;;;;;;10312705;28;20313;-76
2023/03/27 18:02:20;;;;;;;4.27;1.10;;;6.10;99.90;;;;;;10321720;28;20259;-75
2023/03/27 18:07:22;;;;;;;2.53;1.07;;;6.10;99.90;;;;;;10317954;28;20217;-74
2023/03/27 18:12:22;;;;;;;2.40;0.97;;;6.10;99.90;;;;;;10307959;28;20224;-75
2023/03/27 18:17:23;;;;;;;2.30;1.40;;;6.20;99.90;;;;;;10311599;28;20226;-74
2023/03/27 18:22:23;;;;;;;1.30;0.83;;;6.30;99.90;;;;;;10323642;28;20218;-76
2023/03/27 18:27:27;;;;;;;2.27;1.30;;;6.30;99.90;;;;;;10317979;28;20308;-74
2023/03/27 18:32:27;;;;;;;1.97;1.03;;;6.20;99.90;;;;;;10307801;28;20254;-75
2023/03/27 18:37:28;;;;;;;1.97;1.23;;;6.20;99.90;;;;;;10309827;28;20316;-74
2023/03/27 18:42:29;;;;;;;3.63;1.43;;;6.10;99.90;;;;;;10306680;28;20234;-73
2023/03/27 18:47:29;;;;;;;2.10;1.23;;;6.00;99.90;;;;;;10309202;28;20229;-75
2023/03/27 18:52:30;;;;;;;1.63;1.23;;;5.80;99.90;;;;;;10306995;28;20257;-74
2023/03/27 18:57:33;;;;;;;2.87;1.20;;;5.70;99.90;;;;;;10313155;28;20220;-74
2023/03/27 19:02:35;;;;;;;1.70;0.97;;;5.50;99.90;;;;;;10322259;28;20267;-74
2023/03/27 19:07:36;;;;;;;2.10;1.20;;;5.40;99.90;;;;;;10327610;28;20738;-75
2023/03/27 19:12:37;;;;;;;2.30;1.20;;;5.30;99.90;;;;;;10307951;28;20222;-74
2023/03/27 19:17:37;;;;;;;2.43;1.40;;;5.20;99.90;;;;;;10314519;28;20231;-74
2023/03/27 19:22:38;;;;;;;2.03;1.03;;;5.10;99.90;;;;;;10307207;28;20222;-73
2023/03/27 19:27:38;;;;;;;2.10;1.00;;;5.10;99.90;;;;;;10312747;28;20589;-74
2023/03/27 19:32:39;;;;;;;2.47;1.60;;;5.10;99.90;;;;;;10313488;28;20691;-74
2023/03/27 19:37:43;;;;;;;4.03;1.50;;;5.20;99.90;;;;;;10314065;28;20221;-74
2023/03/27 19:42:43;;;;;;;4.53;1.73;;;5.20;99.90;;;;;;10309431;28;20233;-74
2023/03/27 19:47:44;;;;;;;3.90;1.90;;;5.30;99.90;;;;;;10305475;28;20222;-74
2023/03/27 19:52:46;;;;;;;2.07;1.50;;;5.40;99.90;;;;;;10309968;28;20225;-74
2023/03/27 19:57:46;;;;;;;3.67;1.80;;;5.60;99.90;;;;;;10318974;28;20222;-73
2023/03/27 20:02:47;;;;;;;5.13;1.20;;;5.60;99.90;;;;;;10304804;28;20238;-75
2023/03/27 20:07:47;;;;;;;1.60;1.10;;;5.70;99.90;;;;;;10301754;28;20681;-74
2023/03/27 20:12:48;;;;;;;5.63;1.57;;;5.70;99.90;;;;;;10313600;28;20221;-74
2023/03/27 20:17:48;;;;;;;4.10;1.67;;;5.70;99.90;;;;;;10311752;28;20220;-74
2023/03/27 20:22:50;;;;;;;4.40;1.90;;;5.60;99.90;;;;;;10319619;28;20317;-75
2023/03/27 20:27:50;;;;;;;4.30;1.70;;;5.60;99.90;;;;;;10309388;28;20222;-74
2023/03/27 20:32:55;;;;;;;3.30;1.73;;;5.50;99.90;;;;;;10314620;28;20656;-75
2023/03/27 20:37:56;;;;;;;1.70;1.17;;;5.40;99.90;;;;;;10311266;28;20827;-75
2023/03/27 20:43:04;;;;;;;1.80;1.20;;;5.20;99.90;;;;;;10315369;28;20237;-74
2023/03/27 20:48:07;;;;;;;4.73;1.83;;;5.10;99.90;;;;;;10309025;28;20228;-71
2023/03/27 20:53:11;;;;;;;2.93;1.30;;;4.90;99.90;;;;;;10316889;28;20225;-71
2023/03/27 20:58:11;;;;;;;3.63;1.27;;;4.90;99.90;;;;;;10320335;28;20226;-72
2023/03/27 21:03:12;;;;;;;3.80;1.67;;;4.80;99.90;;;;;;10322085;28;20241;-73
2023/03/27 21:08:13;;;;;;;4.37;1.97;;;4.60;99.90;;;;;;10319015;28;20233;-70
2023/03/27 21:13:13;;;;;;;2.53;1.60;;;4.50;99.90;;;;;;10308822;28;20240;-70
2023/03/27 21:18:14;;;;;;;4.30;1.73;;;4.50;99.90;;;;;;10321853;28;20227;-70
2023/03/27 21:23:15;;;;;;;4.73;2.10;;;4.40;99.90;;;;;;10321184;28;20236;-70
2023/03/27 21:28:15;;;;;;;9.03;2.40;;;4.30;99.90;;;;;;10322409;28;20221;-72
2023/03/27 21:33:16;;;;;;;3.97;1.80;;;4.20;99.90;;;;;;10314904;28;20280;-73
2023/03/27 21:38:17;;;;;;;2.33;1.70;;;4.20;99.90;;;;;;10312907;28;20915;-71
2023/03/27 21:43:20;;;;;;;5.63;1.83;;;4.10;99.90;;;;;;10313772;28;20243;-69
2023/03/27 21:48:20;;;;;;;2.53;1.47;;;4.10;99.90;;;;;;10313010;28;20651;-70
2023/03/27 21:53:21;;;;;;;5.00;1.63;;;4.10;99.90;;;;;;10315890;28;20276;-75
2023/03/27 21:58:22;;;;;;;5.20;1.70;;;4.00;99.90;;;;;;10321097;28;20273;-73
2023/03/27 22:03:25;;;;;;;3.40;1.80;;;4.00;99.90;;;;;;10316126;28;20333;-74
2023/03/27 22:08:25;;;;;;;4.70;1.40;;;4.00;99.90;;;;;;10318439;28;20222;-74
2023/03/27 22:13:26;;;;;;;4.50;1.80;;;4.00;99.90;;;;;;10314023;28;20222;-72
2023/03/27 22:18:26;;;;;;;2.80;1.47;;;4.00;99.90;;;;;;10310699;28;20232;-72
2023/03/27 22:23:27;;;;;;;4.43;1.60;;;3.90;99.90;;;;;;10307824;28;20743;-73
2023/03/27 22:28:28;;;;;;;2.57;1.53;;;3.80;99.90;;;;;;10317616;28;20758;-74
2023/03/27 22:33:30;;;;;;;4.43;1.60;;;3.80;99.90;;;;;;10307062;28;20228;-73
2023/03/27 22:38:32;;;;;;;5.87;2.03;;;3.70;99.90;;;;;;10310170;28;20955;-69
2023/03/27 22:43:33;;;;;;;4.43;1.60;;;3.60;99.90;;;;;;10308203;28;20234;-71
2023/03/27 22:48:34;;;;;;;4.07;1.60;;;3.60;99.90;;;;;;10320768;28;20222;-71
2023/03/27 22:53:35;;;;;;;2.93;1.70;;;3.60;99.90;;;;;;10308382;28;20223;-72
2023/03/27 22:58:36;;;;;;;5.10;1.93;;;3.50;99.90;;;;;;10322124;28;20222;-71
2023/03/27 23:03:37;;;;;;;3.57;1.20;;;3.50;99.90;;;;;;10318297;28;20245;-71
2023/03/27 23:08:37;;;;;;;5.97;1.90;;;3.40;99.90;;;;;;10307303;28;20288;-70
2023/03/27 23:13:38;;;;;;;4.60;1.83;;;3.30;99.90;;;;;;10306751;28;20237;-73
2023/03/27 23:18:39;;;;;;;4.53;1.47;;;3.30;99.90;;;;;;10317088;28;20222;-71
2023/03/27 23:23:40;;;;;;;5.73;1.87;;;3.20;99.90;;;;;;10312918;28;20752;-72
2023/03/27 23:28:41;;;;;;;5.63;2.07;;;3.20;99.90;;;;;;10306260;28;20229;-72
2023/03/27 23:33:47;;;;;;;2.60;1.60;;;3.20;99.90;;;;;;10307533;28;20279;-72
2023/03/27 23:38:50;;;;;;;5.60;2.00;;;3.10;99.90;;;;;;10305469;28;20234;-71
2023/03/27 23:43:52;;;;;;;5.23;1.60;;;3.00;99.90;;;;;;10314910;28;20618;-72
2023/03/27 23:48:53;;;;;;;3.13;1.70;;;2.90;99.90;;;;;;10303913;28;20218;-73
2023/03/27 23:53:53;;;;;;;4.87;1.77;;;2.80;99.90;;;;;;10311355;28;20218;-72
2023/03/27 23:58:54;;;;;;;3.00;1.60;;;2.70;99.90;;;;;;10308274;28;20228;-72
